createdAt,value
2022-12-31T00:00:36.477Z,100828.09
2022-12-31T00:03:04.703Z,100819.38
2022-12-31T00:05:33.624Z,100820.13
2022-12-31T00:08:03.003Z,100835.69
2022-12-31T00:10:34.269Z,100821.84
2022-12-31T00:13:02.359Z,100834.88
2022-12-31T00:15:30.417Z,100836.06
2022-12-31T00:17:58.384Z,100690.72
2022-12-31T00:20:26.349Z,100845.59
2022-12-31T00:22:54.356Z,100845.09
2022-12-31T00:25:22.464Z,100839.03
2022-12-31T00:27:51.846Z,100838.19
2022-12-31T00:30:19.859Z,100847.28
2022-12-31T00:32:47.868Z,100846.38
2022-12-31T00:35:16.001Z,100855.69
2022-12-31T00:37:44.003Z,100859.41
2022-12-31T00:40:12.820Z,100857.72
2022-12-31T00:42:40.851Z,100805.03
2022-12-31T00:45:11.395Z,100859.47
2022-12-31T00:47:39.411Z,100845.34
2022-12-31T00:50:08.230Z,100856.75
2022-12-31T00:52:36.199Z,100852.84
2022-12-31T00:55:04.318Z,100857.44
2022-12-31T00:57:32.268Z,100861.31
2022-12-31T01:00:00.204Z,100855.09
2022-12-31T01:02:29.849Z,100851.53
2022-12-31T01:04:57.977Z,100855.97
2022-12-31T01:07:25.948Z,100857.88
2022-12-31T01:09:54.418Z,100845.94
2022-12-31T01:12:22.416Z,100859.63
2022-12-31T01:14:50.405Z,100873.69
2022-12-31T01:17:18.443Z,100870.84
2022-12-31T01:19:47.840Z,100877.41
2022-12-31T01:22:15.837Z,100875.50
2022-12-31T01:24:44.051Z,100865.28
2022-12-31T01:27:12.081Z,100856.19
2022-12-31T01:29:39.974Z,100860.47
2022-12-31T01:32:08.010Z,100856.91
2022-12-31T01:34:36.018Z,100851.44
2022-12-31T01:37:05.287Z,100846.25
2022-12-31T01:39:33.287Z,100850.47
2022-12-31T01:42:01.203Z,100854.94
2022-12-31T01:44:52.365Z,100848.75
2022-12-31T01:47:29.066Z,100853.19
2022-12-31T01:50:01.512Z,100864.16
2022-12-31T01:52:33.727Z,100852.53
2022-12-31T01:55:07.113Z,100856.94
2022-12-31T01:57:36.487Z,100842.91
2022-12-31T02:00:06.723Z,100862.28
2022-12-31T02:02:34.900Z,100862.88
2022-12-31T02:05:07.062Z,100857.44
2022-12-31T02:07:36.582Z,100873.88
2022-12-31T02:10:04.905Z,100864.59
2022-12-31T02:12:33.188Z,100861.28
2022-12-31T02:15:01.171Z,100853.69
2022-12-31T02:17:34.059Z,100855.06
2022-12-31T02:20:52.247Z,100868.78
2022-12-31T02:23:49.848Z,100846.66
2022-12-31T02:26:46.502Z,100849.22
2022-12-31T02:30:00.281Z,100851.34
2022-12-31T02:32:39.340Z,100828.75
2022-12-31T02:35:13.137Z,100830.53
2022-12-31T02:37:44.579Z,100851.09
2022-12-31T02:40:16.381Z,100843.22
2022-12-31T02:42:46.420Z,100847.53
2022-12-31T02:45:24.164Z,100846.72
2022-12-31T02:48:06.517Z,100851.09
2022-12-31T02:50:42.251Z,100845.22
2022-12-31T02:53:25.493Z,100849.97
2022-12-31T02:56:00.275Z,100853.84
2022-12-31T02:58:49.257Z,100864.38
2022-12-31T03:01:54.594Z,100872.78
2022-12-31T03:04:36.257Z,100880.91
2022-12-31T03:07:06.842Z,100877.00
2022-12-31T03:09:35.609Z,100878.38
2022-12-31T03:12:22.774Z,100880.47
2022-12-31T03:14:51.067Z,100880.69
2022-12-31T03:17:19.133Z,100878.28
2022-12-31T03:20:06.107Z,100885.09
2022-12-31T03:22:36.493Z,100887.13
2022-12-31T03:25:25.449Z,100862.63
2022-12-31T03:27:53.782Z,100894.97
2022-12-31T03:30:23.481Z,100895.13
2022-12-31T03:32:52.579Z,100895.19
2022-12-31T03:35:22.575Z,100874.00
2022-12-31T03:37:51.929Z,100860.56
2022-12-31T03:40:22.113Z,100881.53
2022-12-31T03:42:50.220Z,100880.19
2022-12-31T03:45:18.708Z,100898.25
2022-12-31T03:47:46.751Z,100893.16
2022-12-31T03:50:16.323Z,100898.19
2022-12-31T03:52:45.865Z,100904.03
2022-12-31T03:55:14.751Z,100900.06
2022-12-31T03:57:43.206Z,100877.91
2022-12-31T04:00:15.009Z,100895.63
2022-12-31T04:02:43.265Z,100883.47
2022-12-31T04:05:11.795Z,100880.94
2022-12-31T04:07:40.202Z,100864.00
2022-12-31T04:10:12.383Z,100893.72
2022-12-31T04:12:40.895Z,100892.16
2022-12-31T04:15:11.520Z,100895.78
2022-12-31T04:17:39.569Z,100867.84
2022-12-31T04:20:08.808Z,100899.31
2022-12-31T04:22:36.749Z,100905.28
2022-12-31T04:25:05.362Z,100907.50
2022-12-31T04:27:34.669Z,100902.25
2022-12-31T04:30:02.673Z,100896.63
2022-12-31T04:32:30.754Z,100881.47
2022-12-31T04:34:58.748Z,100905.28
2022-12-31T04:37:26.706Z,100893.72
2022-12-31T04:39:57.870Z,100893.66
2022-12-31T04:42:28.316Z,100904.09
2022-12-31T04:44:57.726Z,100880.44
2022-12-31T04:47:25.827Z,100897.13
2022-12-31T04:49:53.874Z,100901.97
2022-12-31T04:52:22.120Z,100911.91
2022-12-31T04:54:50.080Z,100904.00
2022-12-31T04:57:18.576Z,100884.88
2022-12-31T04:59:46.648Z,100903.50
2022-12-31T05:02:16.252Z,100913.63
2022-12-31T05:04:44.441Z,100916.94
2022-12-31T05:07:12.419Z,100890.03
2022-12-31T05:09:40.519Z,100915.03
2022-12-31T05:12:08.708Z,100922.75
2022-12-31T05:14:36.624Z,100919.00
2022-12-31T05:17:04.657Z,100926.38
2022-12-31T05:19:34.156Z,100925.72
2022-12-31T05:22:19.195Z,100933.44
2022-12-31T05:24:47.147Z,100940.16
2022-12-31T05:27:15.170Z,100940.34
2022-12-31T05:29:43.083Z,100935.63
2022-12-31T05:32:11.081Z,100931.56
2022-12-31T05:34:40.489Z,100952.94
2022-12-31T05:37:08.504Z,100906.13
2022-12-31T05:39:36.429Z,100951.09
2022-12-31T05:42:04.460Z,100945.13
2022-12-31T05:44:32.497Z,100958.75
2022-12-31T05:47:00.506Z,100950.47
2022-12-31T05:49:28.535Z,100960.91
2022-12-31T05:51:57.981Z,100964.13
2022-12-31T05:54:25.929Z,100964.31
2022-12-31T05:56:53.878Z,100972.13
2022-12-31T05:59:21.947Z,100971.41
2022-12-31T06:01:49.973Z,100970.66
2022-12-31T06:04:18.306Z,100978.31
2022-12-31T06:06:46.276Z,100980.13
2022-12-31T06:09:16.062Z,100978.63
2022-12-31T06:11:44.381Z,100975.50
2022-12-31T06:14:12.653Z,100972.72
2022-12-31T06:16:41.286Z,100969.47
2022-12-31T06:19:09.739Z,100934.06
2022-12-31T06:21:37.716Z,100976.00
2022-12-31T06:24:06.425Z,100949.59
2022-12-31T06:26:35.800Z,100980.81
2022-12-31T06:29:03.875Z,100984.94
2022-12-31T06:31:31.845Z,100988.44
2022-12-31T06:34:00.271Z,100991.53
2022-12-31T06:36:28.309Z,100996.28
2022-12-31T06:38:56.633Z,100998.84
2022-12-31T06:41:24.658Z,101001.31
2022-12-31T06:43:54.179Z,100993.56
2022-12-31T06:46:22.170Z,101012.97
2022-12-31T06:48:50.115Z,101010.09
2022-12-31T06:51:20.294Z,100998.09
2022-12-31T06:53:49.564Z,101016.72
2022-12-31T06:56:19.513Z,101015.34
2022-12-31T06:58:48.913Z,100992.63
2022-12-31T07:01:44.617Z,101015.25
2022-12-31T07:04:53.146Z,101026.50
2022-12-31T07:07:28.089Z,101022.63
2022-12-31T07:10:02.965Z,101011.88
2022-12-31T07:12:45.069Z,101016.47
2022-12-31T07:15:17.623Z,101014.78
2022-12-31T07:17:56.480Z,100980.31
2022-12-31T07:20:24.936Z,101024.53
2022-12-31T07:22:53.539Z,101033.34
2022-12-31T07:25:23.527Z,101002.81
2022-12-31T07:28:07.408Z,101034.94
2022-12-31T07:30:43.983Z,101042.94
2022-12-31T07:33:33.661Z,101042.25
2022-12-31T07:36:14.586Z,101041.28
2022-12-31T07:38:51.458Z,101046.59
2022-12-31T07:41:28.281Z,101050.34
2022-12-31T07:44:05.133Z,101044.94
2022-12-31T07:46:42.232Z,101052.41
2022-12-31T07:49:14.548Z,101044.75
2022-12-31T07:51:43.482Z,101059.72
2022-12-31T07:54:14.135Z,101054.03
2022-12-31T07:56:43.007Z,101051.97
2022-12-31T07:59:24.638Z,101061.41
2022-12-31T08:01:57.809Z,101063.94
2022-12-31T08:04:32.596Z,101011.69
2022-12-31T08:07:11.186Z,101060.19
2022-12-31T08:09:48.303Z,101032.09
2022-12-31T08:12:16.567Z,101066.63
2022-12-31T08:14:48.375Z,101040.00
2022-12-31T08:17:18.860Z,101067.09
2022-12-31T08:19:48.933Z,101067.59
2022-12-31T08:22:35.981Z,101071.16
2022-12-31T08:25:15.444Z,101067.47
2022-12-31T08:27:51.637Z,101062.19
2022-12-31T08:30:22.164Z,101067.13
2022-12-31T08:32:56.037Z,101059.25
2022-12-31T08:35:33.711Z,101076.88
2022-12-31T08:38:16.603Z,101074.00
2022-12-31T08:40:53.285Z,101076.25
2022-12-31T08:43:36.499Z,101068.97
2022-12-31T08:46:07.126Z,101072.75
2022-12-31T08:48:40.528Z,101069.78
2022-12-31T08:51:15.788Z,101053.13
2022-12-31T08:53:44.326Z,101064.81
2022-12-31T08:56:25.240Z,101062.66
2022-12-31T08:59:02.858Z,101055.88
2022-12-31T09:01:41.563Z,101008.66
2022-12-31T09:04:21.458Z,101051.19
2022-12-31T09:06:58.696Z,101040.38
2022-12-31T09:09:36.433Z,101044.91
2022-12-31T09:12:11.647Z,101040.81
2022-12-31T09:14:47.059Z,101040.75
2022-12-31T09:17:43.937Z,101030.41
2022-12-31T09:20:18.780Z,101035.88
2022-12-31T09:22:48.549Z,101037.38
2022-12-31T09:25:19.048Z,101026.47
2022-12-31T09:27:58.229Z,101024.25
2022-12-31T09:30:29.145Z,100999.22
2022-12-31T09:33:05.905Z,101027.22
2022-12-31T09:35:39.775Z,101016.94
2022-12-31T09:38:16.494Z,101011.88
2022-12-31T09:41:15.280Z,101007.25
2022-12-31T09:44:33.838Z,101000.88
2022-12-31T09:47:55.786Z,100997.38
2022-12-31T09:50:45.399Z,100990.94
2022-12-31T09:53:40.414Z,100985.88
2022-12-31T09:56:16.726Z,100987.25
2022-12-31T09:58:52.633Z,100979.13
2022-12-31T10:01:31.439Z,100969.66
2022-12-31T10:04:32.333Z,100982.25
2022-12-31T10:07:18.012Z,100979.28
2022-12-31T10:10:00.926Z,100975.16
2022-12-31T10:12:46.913Z,100967.72
2022-12-31T10:15:36.624Z,100961.09
2022-12-31T10:18:13.987Z,100961.78
2022-12-31T10:20:57.338Z,100941.56
2022-12-31T10:23:52.403Z,100947.78
2022-12-31T10:26:38.782Z,100943.75
2022-12-31T10:29:20.280Z,100941.91
2022-12-31T10:32:01.499Z,100953.13
2022-12-31T10:34:44.925Z,100943.53
2022-12-31T10:37:17.779Z,100938.66
2022-12-31T10:40:00.503Z,100912.81
2022-12-31T10:43:14.226Z,100925.56
2022-12-31T10:46:23.205Z,100925.53
2022-12-31T10:49:32.536Z,100921.13
2022-12-31T10:52:47.853Z,100925.56
2022-12-31T10:56:07.927Z,100918.66
2022-12-31T10:59:12.417Z,100923.69
2022-12-31T11:01:49.969Z,100917.53
2022-12-31T11:04:59.433Z,100914.25
2022-12-31T11:07:56.610Z,100912.03
2022-12-31T11:11:09.782Z,100900.03
2022-12-31T11:14:13.616Z,100899.97
2022-12-31T11:17:06.597Z,100897.09
2022-12-31T11:19:42.953Z,100890.91
2022-12-31T11:22:23.905Z,100883.47
2022-12-31T11:25:17.357Z,100887.13
2022-12-31T11:27:59.641Z,100881.06
2022-12-31T11:30:36.952Z,100879.72
2022-12-31T11:33:21.544Z,100878.16
2022-12-31T11:36:04.277Z,100879.31
2022-12-31T11:38:38.920Z,100874.84
2022-12-31T11:41:12.359Z,100870.25
2022-12-31T11:43:49.583Z,100869.44
2022-12-31T11:46:35.164Z,100866.94
2022-12-31T11:49:16.636Z,100870.97
2022-12-31T11:52:00.799Z,100872.63
2022-12-31T11:54:41.290Z,100866.69
2022-12-31T11:57:19.028Z,100865.53
2022-12-31T11:59:47.863Z,100866.81
2022-12-31T12:02:26.308Z,100866.81
2022-12-31T12:04:58.795Z,100860.13
2022-12-31T12:07:27.541Z,100867.63
2022-12-31T12:09:59.185Z,100861.53
2022-12-31T12:12:27.102Z,100865.44
2022-12-31T12:14:55.929Z,100873.81
2022-12-31T12:17:32.356Z,100862.31
2022-12-31T12:20:06.782Z,100863.72
2022-12-31T12:22:34.706Z,100846.72
2022-12-31T12:25:05.721Z,100861.84
2022-12-31T12:27:36.590Z,100860.31
2022-12-31T12:30:20.866Z,100857.47
2022-12-31T12:32:57.364Z,100857.28
2022-12-31T12:35:29.879Z,100857.69
2022-12-31T12:38:03.994Z,100850.13
2022-12-31T12:40:34.594Z,100859.59
2022-12-31T12:43:03.867Z,100861.44
2022-12-31T12:45:45.147Z,100865.78
2022-12-31T12:48:21.222Z,100868.56
2022-12-31T12:50:50.961Z,100866.28
2022-12-31T12:53:33.528Z,100864.72
2022-12-31T12:56:13.219Z,100859.25
2022-12-31T12:58:55.257Z,100864.47
2022-12-31T13:01:34.269Z,100866.53
2022-12-31T13:04:35.406Z,100873.59
2022-12-31T13:07:19.993Z,100866.94
2022-12-31T13:10:11.063Z,100874.69
2022-12-31T13:13:22.779Z,100872.34
2022-12-31T13:15:43.692Z,100861.94
2022-12-31T13:18:33.955Z,100868.75
2022-12-31T13:21:09.446Z,100874.75
2022-12-31T13:23:49.226Z,100874.91
2022-12-31T13:26:25.861Z,100881.72
2022-12-31T13:28:54.771Z,100890.22
2022-12-31T13:31:28.727Z,100884.38
2022-12-31T13:34:00.491Z,100883.97
2022-12-31T13:36:32.782Z,100891.63
2022-12-31T13:39:06.602Z,100884.44
2022-12-31T13:41:41.281Z,100884.66
2022-12-31T13:44:16.322Z,100886.38
2022-12-31T13:46:48.802Z,100887.31
2022-12-31T13:49:22.720Z,100895.91
2022-12-31T13:51:52.455Z,100899.13
2022-12-31T13:54:35.050Z,100899.25
2022-12-31T13:57:07.063Z,100901.28
2022-12-31T13:59:38.696Z,100911.88
2022-12-31T14:02:17.782Z,100919.19
2022-12-31T14:04:52.235Z,100912.16
2022-12-31T14:07:29.192Z,100910.63
2022-12-31T14:10:04.139Z,100916.59
2022-12-31T14:12:41.481Z,100919.19
2022-12-31T14:15:19.801Z,100913.84
2022-12-31T14:17:52.623Z,100907.53
2022-12-31T14:20:30.530Z,100929.28
2022-12-31T14:23:08.660Z,100927.66
2022-12-31T14:25:42.353Z,100932.91
2022-12-31T14:28:20.010Z,100915.34
2022-12-31T14:30:51.305Z,100924.16
2022-12-31T14:33:31.095Z,100917.53
2022-12-31T14:36:28.822Z,100926.25
2022-12-31T14:39:16.662Z,100930.53
2022-12-31T14:41:59.168Z,100931.81
2022-12-31T14:44:37.560Z,100932.75
2022-12-31T14:47:21.582Z,100925.28
2022-12-31T14:49:59.816Z,100927.28
2022-12-31T14:52:31.591Z,100936.19
2022-12-31T14:55:12.352Z,100924.03
2022-12-31T14:58:25.413Z,100927.03
2022-12-31T15:00:35.150Z,100928.88
2022-12-31T15:03:06.494Z,100925.81
2022-12-31T15:05:36.677Z,100909.81
2022-12-31T15:08:25.281Z,100932.44
2022-12-31T15:11:13.347Z,100927.41
2022-12-31T15:14:16.438Z,100937.84
2022-12-31T15:16:53.556Z,100938.72
2022-12-31T15:19:58.205Z,100938.25
2022-12-31T15:22:38.163Z,100933.50
2022-12-31T15:25:22.448Z,100934.09
2022-12-31T15:27:50.736Z,100921.13
2022-12-31T15:30:44.783Z,100934.34
2022-12-31T15:33:21.177Z,100938.19
2022-12-31T15:35:52.060Z,100940.44
2022-12-31T15:38:33.248Z,100942.41
2022-12-31T15:41:02.503Z,100947.75
2022-12-31T15:43:40.947Z,100947.44
2022-12-31T15:46:18.201Z,100937.44
2022-12-31T15:48:52.636Z,100942.00
2022-12-31T15:51:25.184Z,100943.03
2022-12-31T15:53:55.298Z,100933.88
2022-12-31T15:56:32.328Z,100944.97
2022-12-31T15:59:03.764Z,100948.25
2022-12-31T16:01:36.295Z,100930.19
2022-12-31T16:04:07.919Z,100953.56
2022-12-31T16:06:38.780Z,100960.88
2022-12-31T16:09:17.397Z,100961.41
2022-12-31T16:11:45.930Z,100959.75
2022-12-31T16:14:19.560Z,100958.25
2022-12-31T16:16:55.509Z,100966.28
2022-12-31T16:19:30.756Z,100964.56
2022-12-31T16:22:02.435Z,100980.78
2022-12-31T16:24:32.771Z,100970.63
2022-12-31T16:27:04.008Z,100981.16
2022-12-31T16:29:32.175Z,100983.00
2022-12-31T16:32:03.821Z,100963.97
2022-12-31T16:34:38.019Z,100997.44
2022-12-31T16:37:15.074Z,100993.22
2022-12-31T16:40:18.461Z,101000.13
2022-12-31T16:42:48.546Z,100989.94
2022-12-31T16:45:33.504Z,100941.03
2022-12-31T16:48:16.407Z,100993.41
2022-12-31T16:50:46.308Z,100996.00
2022-12-31T16:53:17.943Z,101000.03
2022-12-31T16:55:51.571Z,100984.19
2022-12-31T16:58:24.051Z,101004.94
2022-12-31T17:00:52.688Z,100955.91
2022-12-31T17:03:24.975Z,100987.44
2022-12-31T17:05:59.223Z,101007.69
2022-12-31T17:08:29.403Z,101017.69
2022-12-31T17:10:57.684Z,101012.03
2022-12-31T17:13:30.749Z,101014.47
2022-12-31T17:16:00.343Z,101002.94
2022-12-31T17:18:37.170Z,101020.13
2022-12-31T17:21:09.479Z,101019.84
2022-12-31T17:23:40.086Z,101026.63
2022-12-31T17:26:11.967Z,101032.59
2022-12-31T17:28:44.981Z,101031.91
2022-12-31T17:31:36.833Z,101043.97
2022-12-31T17:34:23.521Z,101045.72
2022-12-31T17:37:00.160Z,101012.22
2022-12-31T17:39:40.681Z,101049.38
2022-12-31T17:42:10.630Z,101055.25
2022-12-31T17:44:40.138Z,101063.56
2022-12-31T17:47:11.817Z,101063.19
2022-12-31T17:49:43.047Z,101068.38
2022-12-31T17:52:13.759Z,101071.78
2022-12-31T17:54:41.915Z,101075.63
2022-12-31T17:57:23.998Z,101074.03
2022-12-31T17:59:52.015Z,101077.28
2022-12-31T18:02:20.238Z,101074.66
2022-12-31T18:04:49.651Z,101082.81
2022-12-31T18:07:17.615Z,101084.22
2022-12-31T18:09:45.523Z,101077.56
2022-12-31T18:12:16.239Z,101088.81
2022-12-31T18:14:46.634Z,101096.88
2022-12-31T18:17:17.194Z,101089.69
2022-12-31T18:20:04.281Z,101092.97
2022-12-31T18:22:35.292Z,101094.59
2022-12-31T18:25:03.499Z,101098.84
2022-12-31T18:27:32.319Z,101063.94
2022-12-31T18:30:04.421Z,101086.78
2022-12-31T18:32:34.548Z,101055.41
2022-12-31T18:35:03.213Z,101115.53
2022-12-31T18:37:31.248Z,101111.88
2022-12-31T18:40:00.579Z,101100.44
2022-12-31T18:42:29.965Z,101117.25
2022-12-31T18:44:57.911Z,101120.91
2022-12-31T18:47:25.902Z,101118.16
2022-12-31T18:49:53.907Z,101112.44
2022-12-31T18:52:25.104Z,101117.00
2022-12-31T18:54:53.031Z,101118.19
2022-12-31T18:57:22.358Z,101114.16
2022-12-31T18:59:50.355Z,101124.13
2022-12-31T19:02:21.072Z,101113.97
2022-12-31T19:04:49.193Z,101094.63
2022-12-31T19:07:17.133Z,101115.78
2022-12-31T19:09:46.366Z,101100.63
2022-12-31T19:12:15.943Z,101118.56
2022-12-31T19:14:45.622Z,101109.72
2022-12-31T19:17:13.593Z,101122.34
2022-12-31T19:19:41.774Z,101110.31
2022-12-31T19:22:14.849Z,101125.84
2022-12-31T19:24:42.732Z,101131.47
2022-12-31T19:27:11.524Z,101127.88
2022-12-31T19:29:39.639Z,101129.56
2022-12-31T19:32:09.004Z,101132.78
2022-12-31T19:34:36.979Z,101112.19
2022-12-31T19:37:04.965Z,101108.50
2022-12-31T19:39:32.893Z,101128.81
2022-12-31T19:42:00.922Z,101122.66
2022-12-31T19:44:28.857Z,101092.09
2022-12-31T19:46:56.896Z,101131.88
2022-12-31T19:49:26.193Z,101136.47
2022-12-31T19:51:54.159Z,101131.34
2022-12-31T19:54:22.003Z,101123.94
2022-12-31T19:56:50.112Z,101130.28
2022-12-31T19:59:18.092Z,101126.66
2022-12-31T20:01:46.083Z,101131.69
2022-12-31T20:04:14.132Z,101121.00
2022-12-31T20:06:43.466Z,101125.31
2022-12-31T20:09:12.670Z,101122.31
2022-12-31T20:11:40.576Z,101123.47
2022-12-31T20:14:10.264Z,101127.63
2022-12-31T20:16:38.266Z,101129.72
2022-12-31T20:19:06.592Z,101126.97
2022-12-31T20:21:34.499Z,101132.28
2022-12-31T20:24:06.466Z,101138.66
2022-12-31T20:26:35.155Z,101132.28
2022-12-31T20:29:03.121Z,101131.19
2022-12-31T20:31:31.030Z,101043.34
2022-12-31T20:33:59.039Z,101131.84
2022-12-31T20:36:27.626Z,101110.22
2022-12-31T20:38:55.589Z,101139.47
2022-12-31T20:41:25.071Z,101131.47
2022-12-31T20:43:53.169Z,101146.38
2022-12-31T20:46:23.348Z,101143.41
2022-12-31T20:48:53.388Z,101138.03
2022-12-31T20:51:22.890Z,101118.88
2022-12-31T20:53:52.435Z,101137.03
2022-12-31T20:56:20.475Z,101144.91
2022-12-31T20:58:50.108Z,101155.00
2022-12-31T21:01:18.910Z,101170.75
2022-12-31T21:04:05.755Z,101180.22
2022-12-31T21:06:37.311Z,101174.94
2022-12-31T21:09:07.756Z,101145.47
2022-12-31T21:11:53.618Z,101187.03
2022-12-31T21:14:23.025Z,101183.50
2022-12-31T21:16:51.284Z,101181.59
2022-12-31T21:19:19.230Z,101182.69
2022-12-31T21:21:48.272Z,101187.44
2022-12-31T21:24:21.744Z,101178.41
2022-12-31T21:26:51.685Z,101188.25
2022-12-31T21:29:19.646Z,101189.53
2022-12-31T21:31:49.029Z,101195.81
2022-12-31T21:34:16.995Z,101189.63
2022-12-31T21:36:45.011Z,101182.84
2022-12-31T21:39:14.701Z,101195.53
2022-12-31T21:41:54.621Z,101175.00
2022-12-31T21:44:24.226Z,101193.22
2022-12-31T21:47:37.155Z,101185.47
2022-12-31T21:50:07.265Z,101186.53
2022-12-31T21:52:35.348Z,101189.97
2022-12-31T21:55:23.550Z,101192.03
2022-12-31T21:58:24.763Z,101194.53
2022-12-31T22:00:58.286Z,101184.06
2022-12-31T22:03:28.638Z,101180.81
2022-12-31T22:06:00.012Z,101156.13
2022-12-31T22:08:29.878Z,101192.53
2022-12-31T22:10:57.806Z,101177.16
2022-12-31T22:13:25.770Z,101187.00
2022-12-31T22:16:00.217Z,101177.28
2022-12-31T22:18:35.588Z,101190.31
2022-12-31T22:21:05.566Z,101188.72
2022-12-31T22:23:34.781Z,101179.34
2022-12-31T22:26:03.281Z,101183.34
2022-12-31T22:28:40.006Z,101192.34
2022-12-31T22:31:09.316Z,101196.13
2022-12-31T22:33:38.727Z,101190.03
2022-12-31T22:36:09.165Z,101159.72
2022-12-31T22:38:37.425Z,101191.56
2022-12-31T22:41:08.038Z,101190.22
2022-12-31T22:43:38.812Z,101157.63
2022-12-31T22:46:11.270Z,101187.28
2022-12-31T22:48:41.615Z,101175.59
2022-12-31T22:51:11.073Z,101179.34
2022-12-31T22:53:39.939Z,101168.56
2022-12-31T22:56:08.036Z,101177.84
2022-12-31T22:58:36.603Z,101153.13
2022-12-31T23:01:06.265Z,101185.22
2022-12-31T23:03:34.765Z,101187.44
2022-12-31T23:06:04.226Z,101191.88
2022-12-31T23:08:32.177Z,101188.59
2022-12-31T23:10:59.930Z,101190.44
2022-12-31T23:13:50.534Z,101184.47
2022-12-31T23:16:37.188Z,101186.34
2022-12-31T23:19:23.847Z,101167.59
2022-12-31T23:22:11.280Z,101185.72
2022-12-31T23:24:39.410Z,101183.59
2022-12-31T23:27:08.122Z,101196.91
2022-12-31T23:29:45.550Z,101164.66
2022-12-31T23:32:14.958Z,101188.13
2022-12-31T23:34:44.706Z,101187.84
2022-12-31T23:37:14.859Z,101187.75
2022-12-31T23:39:43.484Z,101187.09
2022-12-31T23:42:11.677Z,101146.97
2022-12-31T23:44:39.797Z,101184.19
2022-12-31T23:47:07.748Z,101178.84
2022-12-31T23:49:35.709Z,101180.41
2022-12-31T23:52:03.723Z,101182.25
2022-12-31T23:54:33.200Z,101186.63
2022-12-31T23:57:01.169Z,101169.31
2022-12-31T23:59:29.126Z,101181.31
